Terminal Aerodrome Forecast
Issued by NWS Flagstaff, AZ

Home | Current Version | Previous Version | Text Only | Print | Product List | Glossary On
Versions: 1 2 3 4 5 6 7 8 9 10 11 12 13 14 15 16 17
000
FTUS45 KFGZ 261400 AAA
TAFFLG
TAF AMD
KFLG 261403Z 2614/2712 VRB03KT P6SM SKC
     FM261800 24009KT P6SM SCT040
     FM270100 VRB02KT P6SM BKN035=

USA.gov is the U.S. government's official web portal to all federal, state and local government web resources and services.